Austin, Texas
Traffic Map
Current Weather Conditions
Austin, Texas
Clear Haze
Clear
48°
Feels Like: 48°
Wind Chill: 48° Ceiling: Unl
Heat Index: 48° Visibility: 6mi
Dew Point: 46° Wind: 0mph
Humidity: 93% Direction: ° ()
Pressure: 29.78in Gusts: 0mph
Raw Report DataKATT 201251Z AUTO 00000KT 6SM BR CLR 09/08 A2978 RMK AO2 SLP084 T00890078
Traffic Incident Summary
Active as of:
Severity:
Category:
InformationThere was an issue retrieving the traffic information for this location. Please try a different location or try again shortly.
Advertisements
Track Severe Weather on mobile